LFRU/MXN METAR and TAF weather

Enter ICAO airport designator
Station Type Date Time Source
LFRU METAR 2021/04/13 08:00 UTC NOAA

LFRU 130800Z AUTO 09005KT 050V110 CAVOK 09/06 Q1032


Station Type Date Time Source
LFRU Decoded METAR 2021/04/13 08:00 UTC NOAA

Morlaix / Ploujean, France (LFRU) 48-36N 003-49W
Apr 13, 2021 - 04:00 AM EDT / 2021.04.13 0800 UTC
Wind: from the E (090 degrees) at 6 MPH (5 KT) (direction variable):0
Visibility: greater than 7 mile(s):0
Temperature: 48 F (9 C)
Dew Point: 42 F (6 C)
Relative Humidity: 81%
Pressure (altimeter): 30.47 in. Hg (1032 hPa)
ob: LFRU 130800Z AUTO 09005KT 050V110 CAVOK 09/06 Q1032
cycle: 8

Station Type Date Time Source
LFRU TAF UTC NOAA

Error!

Example: see airport list